sensor_id;sensor_type;location;lat;lon;timestamp;temperature;humidity
45849;DHT22;31567;54.600;9.842;2023-06-04T00:03:03;12.30;85.00
45849;DHT22;31567;54.600;9.842;2023-06-04T00:06:43;12.20;85.70
45849;DHT22;31567;54.600;9.842;2023-06-04T00:10:23;12.20;86.70
45849;DHT22;31567;54.600;9.842;2023-06-04T00:14:03;12.10;87.30
45849;DHT22;31567;54.600;9.842;2023-06-04T00:17:42;12.10;87.40
45849;DHT22;31567;54.600;9.842;2023-06-04T00:21:22;12.00;88.00
45849;DHT22;31567;54.600;9.842;2023-06-04T00:25:02;11.90;88.20
45849;DHT22;31567;54.600;9.842;2023-06-04T00:28:42;11.90;87.90
45849;DHT22;31567;54.600;9.842;2023-06-04T00:32:22;11.80;88.00
45849;DHT22;31567;54.600;9.842;2023-06-04T00:36:01;11.80;88.20
45849;DHT22;31567;54.600;9.842;2023-06-04T00:39:41;11.80;88.60
45849;DHT22;31567;54.600;9.842;2023-06-04T00:43:20;11.80;88.90
45849;DHT22;31567;54.600;9.842;2023-06-04T00:47:00;11.80;88.70
45849;DHT22;31567;54.600;9.842;2023-06-04T00:50:40;11.70;88.90
45849;DHT22;31567;54.600;9.842;2023-06-04T00:54:19;11.70;89.10
45849;DHT22;31567;54.600;9.842;2023-06-04T00:57:59;11.60;89.20
45849;DHT22;31567;54.600;9.842;2023-06-04T01:05:43;11.60;90.00
45849;DHT22;31567;54.600;9.842;2023-06-04T01:09:27;11.60;90.20
45849;DHT22;31567;54.600;9.842;2023-06-04T01:13:07;11.60;90.20
45849;DHT22;31567;54.600;9.842;2023-06-04T01:16:49;11.60;90.40
45849;DHT22;31567;54.600;9.842;2023-06-04T01:20:42;11.60;90.70
45849;DHT22;31567;54.600;9.842;2023-06-04T01:24:25;11.60;90.70
45849;DHT22;31567;54.600;9.842;2023-06-04T01:28:07;11.50;90.80
45849;DHT22;31567;54.600;9.842;2023-06-04T01:31:49;11.40;90.90
45849;DHT22;31567;54.600;9.842;2023-06-04T01:35:30;11.40;91.20
45849;DHT22;31567;54.600;9.842;2023-06-04T01:39:12;11.40;91.30
45849;DHT22;31567;54.600;9.842;2023-06-04T01:42:53;11.30;91.40
45849;DHT22;31567;54.600;9.842;2023-06-04T01:46:32;11.20;91.50
45849;DHT22;31567;54.600;9.842;2023-06-04T01:50:12;11.10;91.80
45849;DHT22;31567;54.600;9.842;2023-06-04T01:53:52;11.00;92.00
45849;DHT22;31567;54.600;9.842;2023-06-04T01:57:31;11.10;92.10
45849;DHT22;31567;54.600;9.842;2023-06-04T02:01:11;11.00;92.10
45849;DHT22;31567;54.600;9.842;2023-06-04T02:04:51;11.00;92.30
45849;DHT22;31567;54.600;9.842;2023-06-04T02:08:31;11.00;92.40
45849;DHT22;31567;54.600;9.842;2023-06-04T02:12:12;10.90;92.30
45849;DHT22;31567;54.600;9.842;2023-06-04T02:15:52;10.80;92.40
45849;DHT22;31567;54.600;9.842;2023-06-04T02:19:31;10.80;92.70
45849;DHT22;31567;54.600;9.842;2023-06-04T02:23:13;10.80;92.90
45849;DHT22;31567;54.600;9.842;2023-06-04T02:26:53;10.80;93.00
45849;DHT22;31567;54.600;9.842;2023-06-04T02:30:33;10.80;93.20
45849;DHT22;31567;54.600;9.842;2023-06-04T02:34:12;10.80;93.30
45849;DHT22;31567;54.600;9.842;2023-06-04T02:37:52;10.70;93.30
45849;DHT22;31567;54.600;9.842;2023-06-04T02:41:31;10.70;93.30
45849;DHT22;31567;54.600;9.842;2023-06-04T02:45:11;10.60;93.30
45849;DHT22;31567;54.600;9.842;2023-06-04T02:48:51;10.50;93.40
45849;DHT22;31567;54.600;9.842;2023-06-04T02:52:30;10.50;93.60
45849;DHT22;31567;54.600;9.842;2023-06-04T02:56:12;10.50;93.70
45849;DHT22;31567;54.600;9.842;2023-06-04T02:59:51;10.50;93.80
45849;DHT22;31567;54.600;9.842;2023-06-04T03:03:31;10.50;93.80
45849;DHT22;31567;54.600;9.842;2023-06-04T03:07:10;10.40;93.80
45849;DHT22;31567;54.600;9.842;2023-06-04T03:10:50;10.50;93.80
45849;DHT22;31567;54.600;9.842;2023-06-04T03:14:31;10.40;93.90
45849;DHT22;31567;54.600;9.842;2023-06-04T03:18:11;10.30;93.90
45849;DHT22;31567;54.600;9.842;2023-06-04T03:21:51;10.30;93.90
45849;DHT22;31567;54.600;9.842;2023-06-04T03:25:31;10.20;93.80
45849;DHT22;31567;54.600;9.842;2023-06-04T03:29:11;10.10;93.70
45849;DHT22;31567;54.600;9.842;2023-06-04T03:32:51;10.10;94.00
45849;DHT22;31567;54.600;9.842;2023-06-04T03:36:30;10.10;93.90
45849;DHT22;31567;54.600;9.842;2023-06-04T03:40:17;9.90;93.70
45849;DHT22;31567;54.600;9.842;2023-06-04T03:43:56;9.90;93.90
45849;DHT22;31567;54.600;9.842;2023-06-04T03:47:38;10.00;94.10
45849;DHT22;31567;54.600;9.842;2023-06-04T03:51:17;10.00;94.40
45849;DHT22;31567;54.600;9.842;2023-06-04T03:54:57;10.10;94.50
45849;DHT22;31567;54.600;9.842;2023-06-04T03:58:37;10.20;94.50
45849;DHT22;31567;54.600;9.842;2023-06-04T04:02:16;10.20;94.60
45849;DHT22;31567;54.600;9.842;2023-06-04T04:05:57;10.30;94.70
45849;DHT22;31567;54.600;9.842;2023-06-04T04:09:37;10.30;94.80
45849;DHT22;31567;54.600;9.842;2023-06-04T04:13:17;10.50;94.90
45849;DHT22;31567;54.600;9.842;2023-06-04T04:16:56;10.60;95.00
45849;DHT22;31567;54.600;9.842;2023-06-04T04:20:36;10.60;95.00
45849;DHT22;31567;54.600;9.842;2023-06-04T04:24:28;10.70;95.10
45849;DHT22;31567;54.600;9.842;2023-06-04T04:28:07;10.80;95.20
45849;DHT22;31567;54.600;9.842;2023-06-04T04:31:47;10.90;95.20
45849;DHT22;31567;54.600;9.842;2023-06-04T04:35:27;11.00;95.20
45849;DHT22;31567;54.600;9.842;2023-06-04T04:39:08;11.00;95.30
45849;DHT22;31567;54.600;9.842;2023-06-04T04:42:47;11.20;95.40
45849;DHT22;31567;54.600;9.842;2023-06-04T04:46:27;11.20;95.40
45849;DHT22;31567;54.600;9.842;2023-06-04T04:50:07;11.40;95.60
45849;DHT22;31567;54.600;9.842;2023-06-04T04:53:46;11.40;95.70
45849;DHT22;31567;54.600;9.842;2023-06-04T04:57:26;11.40;96.00
45849;DHT22;31567;54.600;9.842;2023-06-04T05:01:06;11.50;96.30
45849;DHT22;31567;54.600;9.842;2023-06-04T05:04:45;11.60;96.40
45849;DHT22;31567;54.600;9.842;2023-06-04T05:08:25;11.70;96.50
45849;DHT22;31567;54.600;9.842;2023-06-04T05:12:04;11.80;96.60
45849;DHT22;31567;54.600;9.842;2023-06-04T05:15:44;11.90;96.70
45849;DHT22;31567;54.600;9.842;2023-06-04T05:19:24;12.00;96.80
45849;DHT22;31567;54.600;9.842;2023-06-04T05:23:04;12.10;96.90
45849;DHT22;31567;54.600;9.842;2023-06-04T05:26:44;12.30;96.90
45849;DHT22;31567;54.600;9.842;2023-06-04T05:30:24;12.40;96.90
45849;DHT22;31567;54.600;9.842;2023-06-04T05:34:04;12.50;96.90
45849;DHT22;31567;54.600;9.842;2023-06-04T05:37:43;12.60;96.80
45849;DHT22;31567;54.600;9.842;2023-06-04T05:41:25;12.60;96.80
45849;DHT22;31567;54.600;9.842;2023-06-04T05:45:05;12.80;96.80
45849;DHT22;31567;54.600;9.842;2023-06-04T05:48:47;12.90;96.60
45849;DHT22;31567;54.600;9.842;2023-06-04T05:52:27;13.00;96.40
45849;DHT22;31567;54.600;9.842;2023-06-04T05:56:06;13.10;96.40
45849;DHT22;31567;54.600;9.842;2023-06-04T05:59:46;13.30;96.30
45849;DHT22;31567;54.600;9.842;2023-06-04T06:03:25;13.40;96.10
45849;DHT22;31567;54.600;9.842;2023-06-04T06:07:06;13.50;95.80
45849;DHT22;31567;54.600;9.842;2023-06-04T06:10:46;13.60;95.60
45849;DHT22;31567;54.600;9.842;2023-06-04T06:14:26;13.70;95.30
45849;DHT22;31567;54.600;9.842;2023-06-04T06:18:05;13.70;95.20
45849;DHT22;31567;54.600;9.842;2023-06-04T06:21:45;13.90;95.20
45849;DHT22;31567;54.600;9.842;2023-06-04T06:25:24;13.80;94.30
45849;DHT22;31567;54.600;9.842;2023-06-04T06:29:04;13.90;94.30
45849;DHT22;31567;54.600;9.842;2023-06-04T06:32:44;13.90;94.10
45849;DHT22;31567;54.600;9.842;2023-06-04T06:36:25;14.00;94.00
45849;DHT22;31567;54.600;9.842;2023-06-04T06:40:06;14.10;93.90
45849;DHT22;31567;54.600;9.842;2023-06-04T06:43:46;14.20;94.00
45849;DHT22;31567;54.600;9.842;2023-06-04T06:47:25;14.40;93.70
45849;DHT22;31567;54.600;9.842;2023-06-04T06:51:05;14.50;93.50
45849;DHT22;31567;54.600;9.842;2023-06-04T06:54:45;14.70;93.20
45849;DHT22;31567;54.600;9.842;2023-06-04T06:58:24;14.80;92.70
45849;DHT22;31567;54.600;9.842;2023-06-04T07:02:05;14.90;92.10
45849;DHT22;31567;54.600;9.842;2023-06-04T07:05:45;15.00;92.00
45849;DHT22;31567;54.600;9.842;2023-06-04T07:09:25;14.90;91.90
45849;DHT22;31567;54.600;9.842;2023-06-04T07:13:05;15.00;91.90
45849;DHT22;31567;54.600;9.842;2023-06-04T07:16:44;15.00;91.90
45849;DHT22;31567;54.600;9.842;2023-06-04T07:20:24;15.10;91.60
45849;DHT22;31567;54.600;9.842;2023-06-04T07:24:04;15.30;91.30
45849;DHT22;31567;54.600;9.842;2023-06-04T07:27:43;15.30;91.30
45849;DHT22;31567;54.600;9.842;2023-06-04T07:31:23;15.30;90.90
45849;DHT22;31567;54.600;9.842;2023-06-04T07:35:02;15.40;90.40
45849;DHT22;31567;54.600;9.842;2023-06-04T07:38:43;15.60;90.40
45849;DHT22;31567;54.600;9.842;2023-06-04T07:42:22;15.50;90.40
45849;DHT22;31567;54.600;9.842;2023-06-04T07:46:05;15.60;90.40
45849;DHT22;31567;54.600;9.842;2023-06-04T07:49:45;15.70;89.90
45849;DHT22;31567;54.600;9.842;2023-06-04T07:53:25;15.90;89.70
45849;DHT22;31567;54.600;9.842;2023-06-04T07:57:05;16.00;89.40
45849;DHT22;31567;54.600;9.842;2023-06-04T08:00:44;16.10;88.90
45849;DHT22;31567;54.600;9.842;2023-06-04T08:04:24;16.10;87.90
45849;DHT22;31567;54.600;9.842;2023-06-04T08:08:03;16.30;87.90
45849;DHT22;31567;54.600;9.842;2023-06-04T08:11:43;16.40;86.60
45849;DHT22;31567;54.600;9.842;2023-06-04T08:15:23;16.50;86.60
45849;DHT22;31567;54.600;9.842;2023-06-04T08:19:03;16.50;87.20
45849;DHT22;31567;54.600;9.842;2023-06-04T08:22:42;16.50;85.90
45849;DHT22;31567;54.600;9.842;2023-06-04T08:26:22;16.60;85.40
45849;DHT22;31567;54.600;9.842;2023-06-04T08:30:03;16.60;85.70
45849;DHT22;31567;54.600;9.842;2023-06-04T08:33:45;16.80;86.00
45849;DHT22;31567;54.600;9.842;2023-06-04T08:37:25;17.00;85.80
45849;DHT22;31567;54.600;9.842;2023-06-04T08:41:20;17.00;85.50
45849;DHT22;31567;54.600;9.842;2023-06-04T08:45:02;17.20;85.30
45849;DHT22;31567;54.600;9.842;2023-06-04T08:48:42;17.20;86.00
45849;DHT22;31567;54.600;9.842;2023-06-04T08:52:23;17.30;85.30
45849;DHT22;31567;54.600;9.842;2023-06-04T08:56:03;17.40;85.80
45849;DHT22;31567;54.600;9.842;2023-06-04T08:59:43;17.50;84.90
45849;DHT22;31567;54.600;9.842;2023-06-04T09:03:26;17.60;84.30
45849;DHT22;31567;54.600;9.842;2023-06-04T09:07:08;17.80;84.70
45849;DHT22;31567;54.600;9.842;2023-06-04T09:10:50;17.80;83.30
45849;DHT22;31567;54.600;9.842;2023-06-04T09:14:32;17.90;82.70
45849;DHT22;31567;54.600;9.842;2023-06-04T09:18:12;17.70;82.10
45849;DHT22;31567;54.600;9.842;2023-06-04T09:21:55;17.70;82.50
45849;DHT22;31567;54.600;9.842;2023-06-04T09:25:42;17.80;83.00
45849;DHT22;31567;54.600;9.842;2023-06-04T09:29:22;18.10;82.10
45849;DHT22;31567;54.600;9.842;2023-06-04T09:33:08;18.30;80.50
45849;DHT22;31567;54.600;9.842;2023-06-04T09:36:48;18.50;80.20
45849;DHT22;31567;54.600;9.842;2023-06-04T09:40:38;18.60;79.70
45849;DHT22;31567;54.600;9.842;2023-06-04T09:44:17;18.30;80.10
45849;DHT22;31567;54.600;9.842;2023-06-04T09:48:00;18.20;80.50
45849;DHT22;31567;54.600;9.842;2023-06-04T09:51:47;18.00;80.40
45849;DHT22;31567;54.600;9.842;2023-06-04T09:55:27;18.10;80.20
45849;DHT22;31567;54.600;9.842;2023-06-04T09:59:09;18.40;80.80
45849;DHT22;31567;54.600;9.842;2023-06-04T10:02:50;18.70;79.50
45849;DHT22;31567;54.600;9.842;2023-06-04T10:06:35;18.70;79.70
45849;DHT22;31567;54.600;9.842;2023-06-04T10:10:17;18.90;78.70
45849;DHT22;31567;54.600;9.842;2023-06-04T10:14:03;19.10;78.30
45849;DHT22;31567;54.600;9.842;2023-06-04T10:17:47;19.30;78.30
45849;DHT22;31567;54.600;9.842;2023-06-04T10:21:28;19.60;77.30
45849;DHT22;31567;54.600;9.842;2023-06-04T10:25:12;19.80;76.60
45849;DHT22;31567;54.600;9.842;2023-06-04T10:28:53;19.80;76.20
45849;DHT22;31567;54.600;9.842;2023-06-04T10:32:34;19.60;75.70
45849;DHT22;31567;54.600;9.842;2023-06-04T10:36:21;19.50;75.70
45849;DHT22;31567;54.600;9.842;2023-06-04T10:40:01;19.70;75.80
45849;DHT22;31567;54.600;9.842;2023-06-04T10:43:50;19.90;75.20
45849;DHT22;31567;54.600;9.842;2023-06-04T10:47:31;19.80;75.60
45849;DHT22;31567;54.600;9.842;2023-06-04T10:51:13;19.60;75.50
45849;DHT22;31567;54.600;9.842;2023-06-04T10:55:06;19.50;76.00
45849;DHT22;31567;54.600;9.842;2023-06-04T10:58:46;19.50;76.10
45849;DHT22;31567;54.600;9.842;2023-06-04T11:02:26;19.40;75.80
45849;DHT22;31567;54.600;9.842;2023-06-04T11:06:16;19.40;76.40
45849;DHT22;31567;54.600;9.842;2023-06-04T11:09:56;19.30;76.00
45849;DHT22;31567;54.600;9.842;2023-06-04T11:13:36;19.30;76.10
45849;DHT22;31567;54.600;9.842;2023-06-04T11:17:17;19.60;76.10
45849;DHT22;31567;54.600;9.842;2023-06-04T11:21:00;20.10;76.00
45849;DHT22;31567;54.600;9.842;2023-06-04T11:24:44;20.30;74.70
45849;DHT22;31567;54.600;9.842;2023-06-04T11:28:24;20.10;75.30
45849;DHT22;31567;54.600;9.842;2023-06-04T11:32:04;20.10;76.40
45849;DHT22;31567;54.600;9.842;2023-06-04T11:35:43;20.10;76.10
45849;DHT22;31567;54.600;9.842;2023-06-04T11:39:33;20.30;76.10
45849;DHT22;31567;54.600;9.842;2023-06-04T11:43:13;20.00;76.70
45849;DHT22;31567;54.600;9.842;2023-06-04T11:46:52;20.00;77.70
45849;DHT22;31567;54.600;9.842;2023-06-04T11:50:33;20.20;76.40
45849;DHT22;31567;54.600;9.842;2023-06-04T11:54:13;20.00;77.00
45849;DHT22;31567;54.600;9.842;2023-06-04T11:57:54;19.80;77.30
45849;DHT22;31567;54.600;9.842;2023-06-04T12:01:34;19.70;77.90
45849;DHT22;31567;54.600;9.842;2023-06-04T12:05:14;19.90;77.80
45849;DHT22;31567;54.600;9.842;2023-06-04T12:08:55;20.10;78.10
45849;DHT22;31567;54.600;9.842;2023-06-04T12:12:35;20.10;78.60
45849;DHT22;31567;54.600;9.842;2023-06-04T12:16:14;20.20;78.10
45849;DHT22;31567;54.600;9.842;2023-06-04T12:19:54;20.30;77.60
45849;DHT22;31567;54.600;9.842;2023-06-04T12:23:35;20.40;75.90
45849;DHT22;31567;54.600;9.842;2023-06-04T12:27:15;20.50;77.10
45849;DHT22;31567;54.600;9.842;2023-06-04T12:30:54;20.50;76.50
45849;DHT22;31567;54.600;9.842;2023-06-04T12:34:35;20.80;76.00
45849;DHT22;31567;54.600;9.842;2023-06-04T12:38:14;21.00;75.50
45849;DHT22;31567;54.600;9.842;2023-06-04T12:41:54;20.90;74.50
45849;DHT22;31567;54.600;9.842;2023-06-04T12:45:34;21.00;75.10
45849;DHT22;31567;54.600;9.842;2023-06-04T12:49:14;20.90;75.40
45849;DHT22;31567;54.600;9.842;2023-06-04T12:52:53;20.90;75.40
45849;DHT22;31567;54.600;9.842;2023-06-04T12:56:33;21.10;75.40
45849;DHT22;31567;54.600;9.842;2023-06-04T13:00:13;21.10;74.50
45849;DHT22;31567;54.600;9.842;2023-06-04T13:03:54;21.00;74.50
45849;DHT22;31567;54.600;9.842;2023-06-04T13:07:34;20.60;74.60
45849;DHT22;31567;54.600;9.842;2023-06-04T13:11:14;20.60;75.10
45849;DHT22;31567;54.600;9.842;2023-06-04T13:14:55;20.80;74.70
45849;DHT22;31567;54.600;9.842;2023-06-04T13:18:35;20.70;74.50
45849;DHT22;31567;54.600;9.842;2023-06-04T13:22:15;20.70;76.50
45849;DHT22;31567;54.600;9.842;2023-06-04T13:25:54;20.50;75.40
45849;DHT22;31567;54.600;9.842;2023-06-04T13:29:34;20.20;76.00
45849;DHT22;31567;54.600;9.842;2023-06-04T13:33:14;20.30;77.00
45849;DHT22;31567;54.600;9.842;2023-06-04T13:36:54;20.00;76.50
45849;DHT22;31567;54.600;9.842;2023-06-04T13:40:35;20.20;77.10
45849;DHT22;31567;54.600;9.842;2023-06-04T13:44:15;20.30;76.80
45849;DHT22;31567;54.600;9.842;2023-06-04T13:47:54;20.30;77.10
45849;DHT22;31567;54.600;9.842;2023-06-04T13:51:34;20.30;77.30
45849;DHT22;31567;54.600;9.842;2023-06-04T13:55:13;20.40;77.20
45849;DHT22;31567;54.600;9.842;2023-06-04T13:58:53;20.60;75.90
45849;DHT22;31567;54.600;9.842;2023-06-04T14:02:32;20.60;76.20
45849;DHT22;31567;54.600;9.842;2023-06-04T14:06:12;20.80;75.50
45849;DHT22;31567;54.600;9.842;2023-06-04T14:09:51;20.80;74.50
45849;DHT22;31567;54.600;9.842;2023-06-04T14:13:33;20.90;74.50
45849;DHT22;31567;54.600;9.842;2023-06-04T14:17:13;21.00;73.80
45849;DHT22;31567;54.600;9.842;2023-06-04T14:20:53;20.90;74.90
45849;DHT22;31567;54.600;9.842;2023-06-04T14:24:32;20.80;74.30
45849;DHT22;31567;54.600;9.842;2023-06-04T14:28:12;21.10;73.30
45849;DHT22;31567;54.600;9.842;2023-06-04T14:31:51;21.20;71.60
45849;DHT22;31567;54.600;9.842;2023-06-04T14:35:31;21.40;72.20
45849;DHT22;31567;54.600;9.842;2023-06-04T14:39:11;21.20;72.00
45849;DHT22;31567;54.600;9.842;2023-06-04T14:42:50;21.30;71.70
45849;DHT22;31567;54.600;9.842;2023-06-04T14:46:30;21.30;72.30
45849;DHT22;31567;54.600;9.842;2023-06-04T14:50:10;21.70;71.90
45849;DHT22;31567;54.600;9.842;2023-06-04T14:53:49;21.80;71.90
45849;DHT22;31567;54.600;9.842;2023-06-04T14:57:29;22.10;70.60
45849;DHT22;31567;54.600;9.842;2023-06-04T15:01:09;22.20;71.20
45849;DHT22;31567;54.600;9.842;2023-06-04T15:04:49;22.30;70.50
45849;DHT22;31567;54.600;9.842;2023-06-04T15:08:29;22.30;70.20
45849;DHT22;31567;54.600;9.842;2023-06-04T15:12:08;22.40;71.60
45849;DHT22;31567;54.600;9.842;2023-06-04T15:15:48;22.50;70.90
45849;DHT22;31567;54.600;9.842;2023-06-04T15:19:27;22.50;69.70
45849;DHT22;31567;54.600;9.842;2023-06-04T15:23:07;22.60;69.40
45849;DHT22;31567;54.600;9.842;2023-06-04T15:26:46;22.60;69.00
45849;DHT22;31567;54.600;9.842;2023-06-04T15:30:26;22.70;68.60
45849;DHT22;31567;54.600;9.842;2023-06-04T15:34:06;22.70;68.70
45849;DHT22;31567;54.600;9.842;2023-06-04T15:37:46;22.70;68.90
45849;DHT22;31567;54.600;9.842;2023-06-04T15:41:25;22.80;68.60
45849;DHT22;31567;54.600;9.842;2023-06-04T15:45:05;22.90;68.30
45849;DHT22;31567;54.600;9.842;2023-06-04T15:48:45;23.10;67.60
45849;DHT22;31567;54.600;9.842;2023-06-04T15:52:24;23.20;67.10
45849;DHT22;31567;54.600;9.842;2023-06-04T15:56:04;23.40;66.60
45849;DHT22;31567;54.600;9.842;2023-06-04T15:59:44;23.50;66.40
45849;DHT22;31567;54.600;9.842;2023-06-04T16:03:24;23.60;66.60
45849;DHT22;31567;54.600;9.842;2023-06-04T16:07:04;23.60;66.40
45849;DHT22;31567;54.600;9.842;2023-06-04T16:10:44;23.60;67.00
45849;DHT22;31567;54.600;9.842;2023-06-04T16:14:24;23.80;65.80
45849;DHT22;31567;54.600;9.842;2023-06-04T16:18:04;24.00;66.00
45849;DHT22;31567;54.600;9.842;2023-06-04T16:21:43;24.10;65.50
45849;DHT22;31567;54.600;9.842;2023-06-04T16:25:23;24.20;64.70
45849;DHT22;31567;54.600;9.842;2023-06-04T16:29:03;24.30;64.80
45849;DHT22;31567;54.600;9.842;2023-06-04T16:32:43;24.40;63.80
45849;DHT22;31567;54.600;9.842;2023-06-04T16:36:22;24.30;62.60
45849;DHT22;31567;54.600;9.842;2023-06-04T16:40:02;24.10;64.00
45849;DHT22;31567;54.600;9.842;2023-06-04T16:43:42;24.10;64.00
45849;DHT22;31567;54.600;9.842;2023-06-04T16:47:22;24.20;63.20
45849;DHT22;31567;54.600;9.842;2023-06-04T16:51:03;24.40;62.80
45849;DHT22;31567;54.600;9.842;2023-06-04T16:54:43;24.40;62.00
45849;DHT22;31567;54.600;9.842;2023-06-04T16:58:22;24.80;62.20
45849;DHT22;31567;54.600;9.842;2023-06-04T17:02:03;24.90;62.50
45849;DHT22;31567;54.600;9.842;2023-06-04T17:05:43;25.00;61.70
45849;DHT22;31567;54.600;9.842;2023-06-04T17:09:22;25.00;61.30
45849;DHT22;31567;54.600;9.842;2023-06-04T17:13:02;25.00;61.80
45849;DHT22;31567;54.600;9.842;2023-06-04T17:16:42;25.10;61.70
45849;DHT22;31567;54.600;9.842;2023-06-04T17:20:21;25.20;61.10
45849;DHT22;31567;54.600;9.842;2023-06-04T17:24:01;25.10;61.10
45849;DHT22;31567;54.600;9.842;2023-06-04T17:27:41;25.20;61.10
45849;DHT22;31567;54.600;9.842;2023-06-04T17:31:21;25.20;61.30
45849;DHT22;31567;54.600;9.842;2023-06-04T17:35:02;25.20;60.90
45849;DHT22;31567;54.600;9.842;2023-06-04T17:38:41;25.30;61.20
45849;DHT22;31567;54.600;9.842;2023-06-04T17:42:21;25.30;60.70
45849;DHT22;31567;54.600;9.842;2023-06-04T17:46:01;25.30;60.80
45849;DHT22;31567;54.600;9.842;2023-06-04T17:49:40;25.40;60.30
45849;DHT22;31567;54.600;9.842;2023-06-04T17:53:20;25.40;60.40
45849;DHT22;31567;54.600;9.842;2023-06-04T17:56:59;25.40;60.30
45849;DHT22;31567;54.600;9.842;2023-06-04T18:00:39;25.40;60.40
45849;DHT22;31567;54.600;9.842;2023-06-04T18:04:18;25.30;60.40
45849;DHT22;31567;54.600;9.842;2023-06-04T18:07:58;25.40;60.30
45849;DHT22;31567;54.600;9.842;2023-06-04T18:11:37;25.50;60.10
45849;DHT22;31567;54.600;9.842;2023-06-04T18:15:18;25.50;60.20
45849;DHT22;31567;54.600;9.842;2023-06-04T18:18:57;25.50;60.00
45849;DHT22;31567;54.600;9.842;2023-06-04T18:22:37;25.60;60.20
45849;DHT22;31567;54.600;9.842;2023-06-04T18:26:17;25.60;60.20
45849;DHT22;31567;54.600;9.842;2023-06-04T18:29:57;25.50;60.40
45849;DHT22;31567;54.600;9.842;2023-06-04T18:33:36;25.30;60.60
45849;DHT22;31567;54.600;9.842;2023-06-04T18:37:17;25.20;61.10
45849;DHT22;31567;54.600;9.842;2023-06-04T18:40:57;25.10;61.50
45849;DHT22;31567;54.600;9.842;2023-06-04T18:44:37;25.00;61.60
45849;DHT22;31567;54.600;9.842;2023-06-04T18:48:16;24.90;61.70
45849;DHT22;31567;54.600;9.842;2023-06-04T18:51:56;24.80;61.80
45849;DHT22;31567;54.600;9.842;2023-06-04T18:55:36;24.80;62.20
45849;DHT22;31567;54.600;9.842;2023-06-04T18:59:16;24.50;62.50
45849;DHT22;31567;54.600;9.842;2023-06-04T19:02:56;24.20;63.00
45849;DHT22;31567;54.600;9.842;2023-06-04T19:06:35;23.70;63.80
45849;DHT22;31567;54.600;9.842;2023-06-04T19:10:15;23.30;64.80
45849;DHT22;31567;54.600;9.842;2023-06-04T19:13:55;22.80;65.70
45849;DHT22;31567;54.600;9.842;2023-06-04T19:17:34;22.40;66.90
45849;DHT22;31567;54.600;9.842;2023-06-04T19:21:14;22.00;68.00
45849;DHT22;31567;54.600;9.842;2023-06-04T19:24:54;21.60;69.00
45849;DHT22;31567;54.600;9.842;2023-06-04T19:28:34;21.30;70.00
45849;DHT22;31567;54.600;9.842;2023-06-04T19:32:13;21.00;70.90
45849;DHT22;31567;54.600;9.842;2023-06-04T19:35:53;20.70;71.80
45849;DHT22;31567;54.600;9.842;2023-06-04T19:39:32;20.40;72.70
45849;DHT22;31567;54.600;9.842;2023-06-04T19:43:12;20.10;73.50
45849;DHT22;31567;54.600;9.842;2023-06-04T19:46:51;19.90;74.20
45849;DHT22;31567;54.600;9.842;2023-06-04T19:50:31;19.60;74.80
45849;DHT22;31567;54.600;9.842;2023-06-04T19:54:11;19.60;75.40
45849;DHT22;31567;54.600;9.842;2023-06-04T19:57:50;19.30;75.70
45849;DHT22;31567;54.600;9.842;2023-06-04T20:01:30;19.10;76.20
45849;DHT22;31567;54.600;9.842;2023-06-04T20:05:10;19.00;76.60
45849;DHT22;31567;54.600;9.842;2023-06-04T20:08:50;18.90;77.00
45849;DHT22;31567;54.600;9.842;2023-06-04T20:12:30;18.80;77.50
45849;DHT22;31567;54.600;9.842;2023-06-04T20:16:10;18.70;77.80
45849;DHT22;31567;54.600;9.842;2023-06-04T20:19:50;18.50;78.20
45849;DHT22;31567;54.600;9.842;2023-06-04T20:23:30;18.50;78.60
45849;DHT22;31567;54.600;9.842;2023-06-04T20:27:09;18.20;79.00
45849;DHT22;31567;54.600;9.842;2023-06-04T20:30:50;18.10;79.20
45849;DHT22;31567;54.600;9.842;2023-06-04T20:34:29;17.90;79.30
45849;DHT22;31567;54.600;9.842;2023-06-04T20:38:09;17.80;79.90
45849;DHT22;31567;54.600;9.842;2023-06-04T20:41:48;17.60;80.30
45849;DHT22;31567;54.600;9.842;2023-06-04T20:45:28;17.40;81.00
45849;DHT22;31567;54.600;9.842;2023-06-04T20:49:07;17.30;81.10
45849;DHT22;31567;54.600;9.842;2023-06-04T20:52:47;17.20;81.60
45849;DHT22;31567;54.600;9.842;2023-06-04T20:56:27;17.10;81.90
45849;DHT22;31567;54.600;9.842;2023-06-04T21:00:07;16.90;82.30
45849;DHT22;31567;54.600;9.842;2023-06-04T21:03:46;16.80;82.80
45849;DHT22;31567;54.600;9.842;2023-06-04T21:07:26;16.70;83.20
45849;DHT22;31567;54.600;9.842;2023-06-04T21:11:06;16.50;83.80
45849;DHT22;31567;54.600;9.842;2023-06-04T21:14:45;16.40;83.90
45849;DHT22;31567;54.600;9.842;2023-06-04T21:18:25;16.20;84.00
45849;DHT22;31567;54.600;9.842;2023-06-04T21:22:05;16.00;84.00
45849;DHT22;31567;54.600;9.842;2023-06-04T21:25:44;16.00;84.40
45849;DHT22;31567;54.600;9.842;2023-06-04T21:29:24;15.90;85.00
45849;DHT22;31567;54.600;9.842;2023-06-04T21:33:03;15.90;85.30
45849;DHT22;31567;54.600;9.842;2023-06-04T21:36:43;15.70;85.50
45849;DHT22;31567;54.600;9.842;2023-06-04T21:40:23;15.70;85.50
45849;DHT22;31567;54.600;9.842;2023-06-04T21:44:02;15.50;85.60
45849;DHT22;31567;54.600;9.842;2023-06-04T21:47:42;15.40;86.20
45849;DHT22;31567;54.600;9.842;2023-06-04T21:51:21;15.30;86.60
45849;DHT22;31567;54.600;9.842;2023-06-04T21:55:01;15.30;87.10
45849;DHT22;31567;54.600;9.842;2023-06-04T21:58:41;15.10;87.50
45849;DHT22;31567;54.600;9.842;2023-06-04T22:02:20;15.00;88.00
45849;DHT22;31567;54.600;9.842;2023-06-04T22:06:00;14.80;88.50
45849;DHT22;31567;54.600;9.842;2023-06-04T22:09:39;14.70;89.10
45849;DHT22;31567;54.600;9.842;2023-06-04T22:13:19;14.60;89.50
45849;DHT22;31567;54.600;9.842;2023-06-04T22:16:58;14.50;90.00
45849;DHT22;31567;54.600;9.842;2023-06-04T22:20:38;14.40;90.10
45849;DHT22;31567;54.600;9.842;2023-06-04T22:24:18;14.30;90.30
45849;DHT22;31567;54.600;9.842;2023-06-04T22:27:57;14.20;90.50
45849;DHT22;31567;54.600;9.842;2023-06-04T22:31:37;14.10;90.50
45849;DHT22;31567;54.600;9.842;2023-06-04T22:35:16;14.00;90.70
45849;DHT22;31567;54.600;9.842;2023-06-04T22:38:56;13.90;90.80
45849;DHT22;31567;54.600;9.842;2023-06-04T22:42:36;13.80;91.10
45849;DHT22;31567;54.600;9.842;2023-06-04T22:46:15;13.80;91.30
45849;DHT22;31567;54.600;9.842;2023-06-04T22:49:55;13.70;91.40
45849;DHT22;31567;54.600;9.842;2023-06-04T22:53:34;13.80;91.50
45849;DHT22;31567;54.600;9.842;2023-06-04T22:57:14;13.70;91.80
45849;DHT22;31567;54.600;9.842;2023-06-04T23:00:53;13.80;91.60
45849;DHT22;31567;54.600;9.842;2023-06-04T23:04:33;13.80;91.60
45849;DHT22;31567;54.600;9.842;2023-06-04T23:08:13;13.80;91.50
45849;DHT22;31567;54.600;9.842;2023-06-04T23:11:52;13.70;91.40
45849;DHT22;31567;54.600;9.842;2023-06-04T23:15:32;13.70;91.40